Time;durP1;ratioP1;P1;durP2;ratioP2;P2;SDS_P1;SDS_P2;PMS_P1;PMS_P2;Temp;Humidity;BMP_temperature;BMP_pressure;BME280_temperature;BME280_humidity;BME280_pressure;Samples;Min_cycle;Max_cycle;Signal;HPM_P1;HPM_P2
2023/01/18 00:01:13;;;;;;;13.65;8.45;;;-0.20;99.90;;;;;;5082343;28;20905;-44
2023/01/18 00:03:38;;;;;;;12.35;8.10;;;-0.20;99.90;;;;;;5082915;28;20147;-43
2023/01/18 00:06:09;;;;;;;11.10;7.38;;;-0.20;99.90;;;;;;5082314;28;20089;-44
2023/01/18 00:08:36;;;;;;;11.77;7.78;;;-0.20;99.90;;;;;;5083579;28;20035;-43
2023/01/18 00:11:03;;;;;;;11.60;7.68;;;-0.20;99.90;;;;;;5082450;28;20039;-44
2023/01/18 00:13:29;;;;;;;11.10;7.60;;;-0.20;99.90;;;;;;5082469;28;20024;-44
2023/01/18 00:16:07;;;;;;;10.38;7.35;;;-0.20;99.90;;;;;;5083891;28;20032;-45
2023/01/18 00:18:34;;;;;;;11.57;8.05;;;-0.20;99.90;;;;;;5082114;28;20141;-44
2023/01/18 00:21:05;;;;;;;11.55;7.57;;;-0.30;99.90;;;;;;5082409;28;20032;-43
2023/01/18 00:23:31;;;;;;;9.90;7.10;;;-0.30;99.90;;;;;;5082932;28;20020;-43
2023/01/18 00:26:01;;;;;;;9.90;7.28;;;-0.30;99.90;;;;;;5082055;28;20034;-42
2023/01/18 00:28:26;;;;;;;10.00;7.53;;;-0.30;99.90;;;;;;5082819;28;20038;-44
2023/01/18 00:30:52;;;;;;;9.63;7.70;;;-0.30;99.90;;;;;;5082564;28;20020;-45
2023/01/18 00:33:17;;;;;;;9.18;7.00;;;-0.30;99.90;;;;;;5081254;28;20380;-45
2023/01/18 00:35:43;;;;;;;10.45;6.97;;;-0.30;99.90;;;;;;5082776;28;20051;-44
2023/01/18 00:38:12;;;;;;;12.93;7.45;;;-0.30;99.90;;;;;;5081500;28;20046;-44
2023/01/18 00:40:40;;;;;;;11.38;7.18;;;-0.30;99.90;;;;;;5081919;28;20135;-44
2023/01/18 00:45:51;;;;;;;11.32;7.32;;;-0.40;99.90;;;;;;5081887;28;20519;-44
2023/01/18 00:48:17;;;;;;;9.45;6.55;;;-0.40;99.90;;;;;;5081668;28;20024;-44
2023/01/18 00:50:43;;;;;;;10.15;7.60;;;-0.40;99.90;;;;;;5082761;28;20094;-44
2023/01/18 00:53:08;;;;;;;10.95;7.82;;;-0.40;99.90;;;;;;5080872;28;20057;-44
2023/01/18 00:55:34;;;;;;;9.45;6.90;;;-0.40;99.90;;;;;;5082724;28;20762;-43
2023/01/18 00:58:02;;;;;;;10.60;7.82;;;-0.40;99.90;;;;;;5081814;28;20418;-44
2023/01/18 01:00:28;;;;;;;12.65;7.35;;;-0.40;99.90;;;;;;5081767;28;20028;-44
2023/01/18 01:02:53;;;;;;;11.55;7.55;;;-0.40;99.90;;;;;;5082214;28;20036;-44
2023/01/18 01:08:15;;;;;;;9.85;7.38;;;-0.40;99.90;;;;;;5081068;28;20144;-44
2023/01/18 01:10:43;;;;;;;8.65;6.78;;;-0.40;99.90;;;;;;5082143;28;20369;-45
2023/01/18 01:26:49;;;;;;;9.13;6.43;;;-0.50;99.90;;;;;;5082429;28;20126;-34
2023/01/18 01:29:15;;;;;;;9.98;6.50;;;-0.50;99.90;;;;;;5080593;28;20020;-34
2023/01/18 01:31:41;;;;;;;12.93;7.15;;;-0.60;99.90;;;;;;5081772;28;20808;-35
2023/01/18 01:34:06;;;;;;;9.85;6.70;;;-0.50;99.90;;;;;;5081138;28;20123;-35
2023/01/18 01:36:32;;;;;;;9.65;6.38;;;-0.50;99.90;;;;;;5080731;28;20115;-34
2023/01/18 01:38:58;;;;;;;10.20;6.63;;;-0.50;99.90;;;;;;5081116;28;20032;-34
2023/01/18 01:41:29;;;;;;;10.23;7.28;;;-0.50;99.90;;;;;;5082082;28;20052;-34
2023/01/18 01:43:57;;;;;;;11.25;7.25;;;-0.50;99.90;;;;;;5081132;28;20040;-34
2023/01/18 01:46:58;;;;;;;11.07;7.40;;;-0.50;99.90;;;;;;5081275;28;20024;-34
2023/01/18 01:49:32;;;;;;;12.40;7.30;;;-0.50;99.90;;;;;;5081229;28;20077;-34
2023/01/18 01:52:04;;;;;;;9.80;7.03;;;-0.50;99.90;;;;;;5079009;28;20031;-34
2023/01/18 01:54:40;;;;;;;9.65;6.35;;;-0.50;99.90;;;;;;5081735;28;20144;-34
2023/01/18 01:57:14;;;;;;;10.90;6.80;;;-0.50;99.90;;;;;;5076644;28;20561;-33
2023/01/18 01:59:44;;;;;;;9.15;6.75;;;-0.50;99.90;;;;;;5081878;28;20041;-33
2023/01/18 02:02:10;;;;;;;13.18;7.90;;;-0.50;99.90;;;;;;5080142;28;20035;-33
2023/01/18 02:04:36;;;;;;;10.65;7.35;;;-0.50;99.90;;;;;;5080820;28;20052;-34
2023/01/18 02:07:02;;;;;;;10.40;7.70;;;-0.50;99.90;;;;;;5080455;28;20028;-34
2023/01/18 02:09:27;;;;;;;9.70;7.20;;;-0.50;99.90;;;;;;5081815;28;20036;-35
2023/01/18 02:11:54;;;;;;;11.00;7.88;;;-0.50;99.90;;;;;;5080608;28;20028;-34
2023/01/18 02:14:23;;;;;;;11.50;7.50;;;-0.50;99.90;;;;;;5080786;28;20028;-34
2023/01/18 02:17:03;;;;;;;11.52;7.28;;;-0.60;99.90;;;;;;5081747;28;20035;-35
2023/01/18 02:19:50;;;;;;;12.07;7.60;;;-0.60;99.90;;;;;;5085635;28;20446;-33
2023/01/18 02:22:37;;;;;;;11.30;7.40;;;-0.60;99.90;;;;;;5085060;28;20459;-33
2023/01/18 02:25:29;;;;;;;9.82;7.45;;;-0.60;99.90;;;;;;5064088;28;20044;-34
2023/01/18 02:28:17;;;;;;;11.75;6.93;;;-0.70;99.90;;;;;;5084980;28;20027;-35
2023/01/18 02:31:12;;;;;;;10.93;7.10;;;-0.70;99.90;;;;;;5085717;28;20100;-34
2023/01/18 02:33:55;;;;;;;10.07;6.85;;;-0.70;99.90;;;;;;5084262;28;20028;-34
2023/01/18 02:36:50;;;;;;;11.88;7.20;;;-0.70;99.90;;;;;;5084939;28;20483;-34
2023/01/18 02:39:53;;;;;;;10.73;6.78;;;-0.70;99.90;;;;;;5076217;28;20039;-33
2023/01/18 02:48:14;;;;;;;10.00;7.38;;;-0.80;99.90;;;;;;5084886;28;20084;-34
2023/01/18 02:50:40;;;;;;;10.48;7.40;;;-0.80;99.90;;;;;;5086469;28;20028;-35
2023/01/18 02:53:11;;;;;;;16.00;8.38;;;-0.90;99.90;;;;;;5083693;28;20856;-34
2023/01/18 02:55:47;;;;;;;14.68;8.45;;;-0.80;99.90;;;;;;5085869;28;20462;-34
2023/01/18 02:58:39;;;;;;;12.15;8.20;;;-0.80;99.90;;;;;;5083859;28;20066;-34
2023/01/18 03:01:08;;;;;;;12.50;7.97;;;-0.80;99.90;;;;;;5065552;28;20035;-34
2023/01/18 03:03:34;;;;;;;12.73;8.15;;;-0.90;99.90;;;;;;5077494;28;20374;-34
2023/01/18 03:06:02;;;;;;;12.48;8.55;;;-0.90;99.90;;;;;;5083236;28;20024;-34
2023/01/18 03:08:44;;;;;;;12.52;8.73;;;-0.90;99.90;;;;;;5083270;28;20035;-34
2023/01/18 03:11:34;;;;;;;12.77;7.80;;;-0.90;99.90;;;;;;5083867;28;20107;-34
2023/01/18 03:14:21;;;;;;;10.07;7.40;;;-0.90;99.90;;;;;;5082823;28;20024;-33
2023/01/18 03:16:56;;;;;;;8.35;6.55;;;-0.90;99.90;;;;;;5064108;28;20102;-35
2023/01/18 03:22:15;;;;;;;13.05;8.02;;;-0.90;99.90;;;;;;5083240;28;20608;-35
2023/01/18 03:24:42;;;;;;;8.90;7.13;;;-1.00;99.90;;;;;;5084489;28;20036;-34
2023/01/18 03:35:26;;;;;;;11.07;8.00;;;-1.00;99.90;;;;;;5082402;28;20617;-35
2023/01/18 03:37:53;;;;;;;10.23;7.18;;;-1.00;99.90;;;;;;5084077;28;20031;-40
2023/01/18 03:40:25;;;;;;;11.57;7.50;;;-1.00;99.90;;;;;;5083342;28;20384;-34
2023/01/18 03:43:13;;;;;;;10.90;7.77;;;-1.00;99.90;;;;;;5083623;28;20043;-34
2023/01/18 03:45:51;;;;;;;11.93;7.35;;;-1.00;99.90;;;;;;5083176;28;20028;-35
2023/01/18 03:48:17;;;;;;;11.13;7.60;;;-1.00;99.90;;;;;;5083760;28;20073;-35
2023/01/18 03:50:51;;;;;;;10.95;7.30;;;-1.00;99.90;;;;;;5083284;28;20028;-35
2023/01/18 03:53:31;;;;;;;11.23;6.95;;;-1.10;99.90;;;;;;5082956;28;20038;-35
2023/01/18 03:56:03;;;;;;;10.30;7.33;;;-1.10;99.90;;;;;;5081259;28;20242;-34
2023/01/18 03:58:35;;;;;;;11.18;7.00;;;-1.10;99.90;;;;;;5083565;28;20532;-34
2023/01/18 04:01:04;;;;;;;9.77;7.00;;;-1.10;99.90;;;;;;5082534;28;20032;-35
2023/01/18 04:03:31;;;;;;;9.40;6.97;;;-1.10;99.90;;;;;;5082366;28;20016;-36
2023/01/18 04:05:59;;;;;;;10.50;7.40;;;-1.10;99.90;;;;;;5082360;28;20020;-34
2023/01/18 04:08:24;;;;;;;10.43;7.72;;;-1.10;99.90;;;;;;5083292;28;20035;-35
2023/01/18 04:10:50;;;;;;;10.75;7.97;;;-1.10;99.90;;;;;;5081731;28;20024;-35
2023/01/18 04:13:15;;;;;;;11.85;8.15;;;-1.10;99.90;;;;;;5082455;28;20024;-36
2023/01/18 04:15:41;;;;;;;11.35;7.68;;;-1.10;99.90;;;;;;5082840;28;20024;-34
2023/01/18 04:18:06;;;;;;;10.85;7.78;;;-1.10;99.90;;;;;;5081922;28;20031;-34
2023/01/18 04:20:32;;;;;;;11.87;8.07;;;-1.10;99.90;;;;;;5082981;28;20031;-35
2023/01/18 04:22:58;;;;;;;11.27;8.63;;;-1.10;99.90;;;;;;5082758;28;20032;-34
2023/01/18 04:25:23;;;;;;;10.35;7.65;;;-1.10;99.90;;;;;;5081542;28;20382;-33
2023/01/18 04:27:49;;;;;;;9.98;7.53;;;-1.20;99.90;;;;;;5083033;28;20490;-35
2023/01/18 04:30:15;;;;;;;10.20;7.13;;;-1.20;99.90;;;;;;5082504;28;20089;-34
2023/01/18 04:32:41;;;;;;;10.02;7.25;;;-1.20;99.90;;;;;;5081836;28;20028;-36
2023/01/18 04:35:08;;;;;;;9.45;7.32;;;-1.20;99.90;;;;;;5082075;28;20048;-35
2023/01/18 04:37:36;;;;;;;9.95;7.13;;;-1.20;99.90;;;;;;5082336;28;20027;-34
2023/01/18 04:40:03;;;;;;;10.23;7.45;;;-1.20;99.90;;;;;;5080711;28;20020;-35
2023/01/18 04:42:29;;;;;;;10.63;7.30;;;-1.20;99.90;;;;;;5082108;28;20396;-35
2023/01/18 04:44:55;;;;;;;11.25;7.25;;;-1.20;99.90;;;;;;5081737;28;20134;-35
2023/01/18 04:47:20;;;;;;;12.15;7.50;;;-1.20;99.90;;;;;;5082126;28;20024;-34
2023/01/18 04:49:46;;;;;;;10.68;7.40;;;-1.30;99.90;;;;;;5082574;28;20028;-35
2023/01/18 04:52:11;;;;;;;10.43;7.80;;;-1.30;99.90;;;;;;5081263;28;20475;-35
2023/01/18 04:54:37;;;;;;;9.30;6.85;;;-1.30;99.90;;;;;;5081893;28;20064;-35
2023/01/18 04:57:02;;;;;;;10.20;7.78;;;-1.30;99.90;;;;;;5081432;28;20462;-34
2023/01/18 04:59:28;;;;;;;11.13;7.53;;;-1.30;99.90;;;;;;5081668;28;20028;-34
2023/01/18 05:01:54;;;;;;;10.32;6.97;;;-1.30;99.90;;;;;;5082683;28;20011;-34
2023/01/18 05:04:19;;;;;;;9.20;6.82;;;-1.30;99.90;;;;;;5082023;28;20024;-35
2023/01/18 05:06:47;;;;;;;9.80;6.90;;;-1.30;99.90;;;;;;5081720;28;20035;-35
2023/01/18 05:09:13;;;;;;;8.57;6.73;;;-1.30;99.90;;;;;;5082683;28;20027;-34
2023/01/18 05:11:38;;;;;;;8.60;6.60;;;-1.30;99.90;;;;;;5082752;28;20030;-34
2023/01/18 05:14:04;;;;;;;9.57;7.30;;;-1.30;99.90;;;;;;5081310;28;20085;-33
2023/01/18 05:16:30;;;;;;;9.85;7.40;;;-1.30;99.90;;;;;;5082643;28;20024;-34
2023/01/18 05:18:55;;;;;;;9.10;7.27;;;-1.30;99.90;;;;;;5082002;28;20770;-33
2023/01/18 05:21:21;;;;;;;10.13;7.43;;;-1.30;99.90;;;;;;5081411;28;20047;-36
2023/01/18 05:23:46;;;;;;;9.07;6.77;;;-1.30;99.90;;;;;;5082087;28;20024;-35
2023/01/18 05:26:16;;;;;;;10.30;6.90;;;-1.40;99.90;;;;;;5082199;28;20055;-34
2023/01/18 05:28:43;;;;;;;11.83;7.77;;;-1.30;99.90;;;;;;5081192;28;20050;-34
2023/01/18 05:31:09;;;;;;;9.10;6.93;;;-1.40;99.90;;;;;;5081340;28;20058;-33
2023/01/18 05:33:34;;;;;;;10.68;7.70;;;-1.40;99.90;;;;;;5081630;28;20040;-33
2023/01/18 05:36:00;;;;;;;9.02;6.22;;;-1.40;99.90;;;;;;5080659;28;20098;-35
2023/01/18 05:38:25;;;;;;;11.57;7.13;;;-1.40;99.90;;;;;;5081198;28;20031;-35
2023/01/18 05:40:53;;;;;;;8.13;6.13;;;-1.40;99.90;;;;;;5081523;28;20103;-35
2023/01/18 05:43:20;;;;;;;9.00;6.40;;;-1.40;99.90;;;;;;5079325;28;20392;-35
2023/01/18 05:45:46;;;;;;;8.87;6.30;;;-1.40;99.90;;;;;;5081799;28;20047;-34
2023/01/18 05:48:12;;;;;;;9.70;6.68;;;-1.40;99.90;;;;;;5080619;28;20020;-35
2023/01/18 05:50:45;;;;;;;8.23;6.20;;;-1.50;99.90;;;;;;5082084;28;20024;-35
2023/01/18 05:53:11;;;;;;;;;;;-1.40;99.90;;;;;;5084923;28;20020;-34
2023/01/18 05:55:37;;;;;;;10.10;6.43;;;-1.50;99.90;;;;;;5085379;28;19908;-35
2023/01/18 05:58:03;;;;;;;8.93;6.53;;;-1.50;99.90;;;;;;5085290;28;20093;-35
2023/01/18 06:00:28;;;;;;;9.00;5.90;;;-1.50;99.90;;;;;;5085624;28;20020;-35
2023/01/18 06:02:54;;;;;;;9.43;6.77;;;-1.50;99.90;;;;;;5085454;28;20028;-34
2023/01/18 06:05:21;;;;;;;9.50;6.80;;;-1.50;99.90;;;;;;5084939;28;20028;-36
2023/01/18 06:07:47;;;;;;;10.47;7.50;;;-1.50;99.90;;;;;;5085653;28;20020;-34
2023/01/18 06:10:13;;;;;;;11.30;7.50;;;-1.60;99.90;;;;;;5083987;28;20080;-35
2023/01/18 06:12:39;;;;;;;10.77;7.00;;;-1.50;99.90;;;;;;5085783;28;20107;-35
2023/01/18 06:15:05;;;;;;;8.50;6.40;;;-1.60;99.90;;;;;;5084650;28;20050;-34
2023/01/18 06:17:32;;;;;;;8.37;6.20;;;-1.60;99.90;;;;;;5064759;28;20016;-34
2023/01/18 06:19:57;;;;;;;10.07;6.90;;;-1.60;99.90;;;;;;5079477;28;20085;-35
2023/01/18 06:22:23;;;;;;;8.40;6.00;;;-1.60;99.90;;;;;;5084691;28;20040;-35
2023/01/18 06:24:49;;;;;;;10.13;5.83;;;-1.60;99.90;;;;;;5084667;28;20028;-34
2023/01/18 06:27:14;;;;;;;9.07;6.33;;;-1.60;99.90;;;;;;5084751;28;20518;-35
2023/01/18 06:29:40;;;;;;;8.77;5.97;;;-1.60;99.90;;;;;;5084893;28;20106;-35
2023/01/18 06:32:05;;;;;;;12.63;6.67;;;-1.50;99.90;;;;;;5083505;28;20538;-34
2023/01/18 06:34:32;;;;;;;8.03;6.47;;;-1.50;99.90;;;;;;5084630;28;20087;-34
2023/01/18 06:37:18;;;;;;;12.27;6.60;;;-1.50;99.90;;;;;;5084940;28;20055;-36
2023/01/18 06:39:43;;;;;;;9.50;6.63;;;-1.50;99.90;;;;;;5084164;28;20043;-35
2023/01/18 06:42:09;;;;;;;9.90;6.60;;;-1.50;99.90;;;;;;5084212;28;20469;-34
2023/01/18 06:44:34;;;;;;;11.03;6.97;;;-1.50;99.90;;;;;;5083844;28;20028;-34
2023/01/18 06:47:00;;;;;;;9.57;6.13;;;-1.50;99.90;;;;;;5084055;28;20050;-35
2023/01/18 06:49:25;;;;;;;9.47;6.43;;;-1.60;99.90;;;;;;5084905;28;20726;-34
2023/01/18 06:51:51;;;;;;;9.53;6.70;;;-1.60;99.90;;;;;;5083773;28;20626;-34
2023/01/18 06:54:17;;;;;;;9.07;6.80;;;-1.60;99.90;;;;;;5084522;28;20471;-35
2023/01/18 06:56:42;;;;;;;9.53;7.07;;;-1.60;99.90;;;;;;5084695;28;20024;-35
2023/01/18 06:59:08;;;;;;;10.23;7.33;;;-1.60;99.90;;;;;;5083442;28;20100;-35
2023/01/18 07:01:37;;;;;;;8.60;7.17;;;-1.60;99.90;;;;;;5084600;28;20031;-36
2023/01/18 07:04:02;;;;;;;9.97;6.77;;;-1.60;99.90;;;;;;5082874;28;20430;-34
2023/01/18 07:06:28;;;;;;;10.10;7.33;;;-1.60;99.90;;;;;;5084324;28;20024;-34
2023/01/18 07:08:53;;;;;;;10.03;6.87;;;-1.70;99.90;;;;;;5086209;28;20433;-35
2023/01/18 07:11:19;;;;;;;9.03;7.23;;;-1.70;99.90;;;;;;5085362;28;20808;-35
2023/01/18 07:13:45;;;;;;;10.00;7.17;;;-1.70;99.90;;;;;;5081957;28;20020;-37
2023/01/18 07:16:18;;;;;;;8.90;6.57;;;-1.70;99.90;;;;;;5082006;28;20035;-35
2023/01/18 07:18:45;;;;;;;10.63;7.07;;;-1.70;99.90;;;;;;5083201;28;20028;-36
2023/01/18 07:21:32;;;;;;;9.97;6.87;;;-1.80;99.90;;;;;;5082263;28;20028;-33
2023/01/18 07:24:01;;;;;;;9.07;6.57;;;-1.80;99.90;;;;;;5081606;28;20040;-34
2023/01/18 07:26:26;;;;;;;11.07;6.37;;;-1.80;99.90;;;;;;5083052;28;20610;-34
2023/01/18 07:28:54;;;;;;;7.00;5.87;;;-1.80;99.90;;;;;;5082550;28;20490;-35
2023/01/18 07:31:20;;;;;;;8.33;5.60;;;-1.80;99.90;;;;;;5082730;28;20060;-34
2023/01/18 07:33:45;;;;;;;6.37;5.43;;;-1.80;99.90;;;;;;5070628;28;20127;-35
2023/01/18 07:36:12;;;;;;;8.03;5.83;;;-1.80;99.90;;;;;;5082510;28;20323;-34
2023/01/18 07:38:38;;;;;;;7.93;6.07;;;-1.80;99.90;;;;;;5082719;28;20421;-34
2023/01/18 07:41:07;;;;;;;9.03;6.50;;;-1.80;99.90;;;;;;5082612;28;20119;-34
2023/01/18 07:43:34;;;;;;;9.17;6.60;;;-1.80;99.90;;;;;;5083123;28;20024;-35
2023/01/18 07:46:00;;;;;;;8.30;5.97;;;-1.80;99.90;;;;;;5081968;28;20035;-34
2023/01/18 07:48:26;;;;;;;8.27;6.20;;;-1.80;99.90;;;;;;5082634;28;20043;-35
2023/01/18 07:50:56;;;;;;;9.93;6.60;;;-1.90;99.90;;;;;;5082984;28;20023;-33
2023/01/18 07:53:23;;;;;;;10.23;6.47;;;-1.80;99.90;;;;;;5082573;28;20012;-35
2023/01/18 07:55:49;;;;;;;8.30;6.60;;;-1.80;99.90;;;;;;5080695;28;20519;-34
2023/01/18 07:58:16;;;;;;;9.07;6.47;;;-1.80;99.90;;;;;;5082196;28;20020;-34
2023/01/18 08:00:41;;;;;;;9.87;6.90;;;-1.80;99.90;;;;;;5082858;28;20113;-35
2023/01/18 08:03:13;;;;;;;9.63;6.30;;;-1.80;99.90;;;;;;5081923;28;20016;-33
2023/01/18 08:05:41;;;;;;;8.90;6.20;;;-1.80;99.90;;;;;;5082926;28;20068;-37
2023/01/18 08:08:08;;;;;;;8.67;6.13;;;-1.80;99.90;;;;;;5081716;28;20104;-34
2023/01/18 08:10:34;;;;;;;7.77;5.30;;;-1.80;99.90;;;;;;5082992;28;20093;-36
2023/01/18 08:13:00;;;;;;;9.23;6.00;;;-1.90;99.90;;;;;;5082200;28;20028;-35
2023/01/18 08:15:25;;;;;;;7.73;5.60;;;-1.80;99.90;;;;;;5081490;28;20056;-34
2023/01/18 08:17:51;;;;;;;9.73;6.33;;;-1.80;99.90;;;;;;5082416;28;20031;-34
2023/01/18 08:20:16;;;;;;;9.17;6.97;;;-1.80;99.90;;;;;;5081191;28;20575;-34
2023/01/18 08:22:42;;;;;;;11.60;6.53;;;-1.80;99.90;;;;;;5082264;28;20034;-35
2023/01/18 08:25:08;;;;;;;8.13;5.70;;;-1.80;99.90;;;;;;5081508;28;20115;-34
2023/01/18 08:27:34;;;;;;;8.93;6.00;;;-1.80;99.90;;;;;;5082156;28;20024;-35
2023/01/18 08:29:59;;;;;;;9.90;6.07;;;-1.70;99.90;;;;;;5081019;28;20403;-34
2023/01/18 08:32:25;;;;;;;7.83;5.83;;;-1.80;99.90;;;;;;5082433;28;20110;-35
2023/01/18 08:34:50;;;;;;;8.63;5.77;;;-1.70;99.90;;;;;;5082452;28;20052;-34
2023/01/18 08:37:16;;;;;;;8.23;6.00;;;-1.70;99.90;;;;;;5081377;28;20088;-34
2023/01/18 08:39:41;;;;;;;7.90;5.70;;;-1.70;99.90;;;;;;5081978;28;20028;-34
2023/01/18 08:42:11;;;;;;;8.00;5.73;;;-1.70;99.90;;;;;;5081367;28;20753;-33
2023/01/18 08:44:36;;;;;;;9.63;5.63;;;-1.70;99.90;;;;;;5081087;28;20039;-35
2023/01/18 08:47:02;;;;;;;7.77;5.87;;;-1.70;99.90;;;;;;5081309;28;20032;-35
2023/01/18 08:49:28;;;;;;;8.00;5.60;;;-1.60;99.90;;;;;;5081984;28;20039;-35
2023/01/18 08:51:53;;;;;;;10.63;6.00;;;-1.60;99.90;;;;;;5081093;28;20054;-34
2023/01/18 08:54:19;;;;;;;7.27;5.80;;;-1.60;99.90;;;;;;5081037;28;20027;-35
2023/01/18 08:56:44;;;;;;;7.53;5.03;;;-1.60;99.90;;;;;;5081533;28;20040;-35
2023/01/18 08:59:10;;;;;;;8.43;5.77;;;-1.50;99.90;;;;;;5080401;28;20012;-35
2023/01/18 09:01:35;;;;;;;7.93;5.77;;;-1.50;99.90;;;;;;5081511;28;20054;-35
2023/01/18 09:04:01;;;;;;;7.53;5.77;;;-1.40;99.90;;;;;;5081743;28;20129;-36
2023/01/18 09:06:30;;;;;;;7.03;5.67;;;-1.40;99.90;;;;;;5081306;28;20521;-35
2023/01/18 09:08:58;;;;;;;9.60;6.10;;;-1.40;99.90;;;;;;5081642;28;20120;-34
2023/01/18 09:11:24;;;;;;;8.50;6.13;;;-1.30;99.90;;;;;;5080376;28;20024;-34
2023/01/18 09:13:53;;;;;;;7.30;5.53;;;-1.30;99.90;;;;;;5081549;28;20092;-35
2023/01/18 09:16:20;;;;;;;9.23;6.33;;;-1.30;99.90;;;;;;5080969;28;20420;-34
2023/01/18 09:18:46;;;;;;;8.13;6.10;;;-1.20;99.90;;;;;;5081986;28;20485;-35
2023/01/18 09:21:12;;;;;;;9.57;6.40;;;-1.20;99.90;;;;;;5080046;28;20169;-34
2023/01/18 09:23:39;;;;;;;8.37;5.87;;;-1.20;99.90;;;;;;5081705;28;20391;-35
2023/01/18 09:26:13;;;;;;;7.73;5.33;;;-1.10;99.90;;;;;;5080086;28;20039;-37
2023/01/18 09:28:38;;;;;;;8.80;6.37;;;-1.10;99.90;;;;;;5081861;28;20051;-35
2023/01/18 09:31:08;;;;;;;8.70;6.30;;;-1.00;99.90;;;;;;5080932;28;20123;-35
2023/01/18 09:33:34;;;;;;;9.30;6.00;;;-1.00;99.90;;;;;;5080756;28;20669;-35
2023/01/18 09:36:06;;;;;;;10.80;7.63;;;-0.90;99.90;;;;;;5080935;28;20081;-35
2023/01/18 09:38:33;;;;;;;8.43;6.55;;;-0.80;99.90;;;;;;5080672;28;20039;-35
2023/01/18 09:40:59;;;;;;;9.43;7.37;;;-0.70;99.90;;;;;;5079051;28;20678;-34
2023/01/18 09:43:34;;;;;;;9.23;7.10;;;-0.60;99.90;;;;;;5081419;28;20032;-35
2023/01/18 09:46:00;;;;;;;10.77;7.93;;;-0.50;99.90;;;;;;5081048;28;20036;-35
2023/01/18 09:48:37;;;;;;;9.63;7.30;;;-0.40;99.90;;;;;;5080655;28;20027;-35
2023/01/18 09:51:19;;;;;;;11.80;7.97;;;-0.20;99.90;;;;;;5080714;28;20127;-35
2023/01/18 09:54:09;;;;;;;11.60;8.80;;;-0.20;99.90;;;;;;5082326;28;20036;-35
2023/01/18 09:56:45;;;;;;;14.57;9.03;;;-0.10;99.90;;;;;;5081171;28;20127;-33
2023/01/18 09:59:34;;;;;;;11.43;8.13;;;-0.10;99.90;;;;;;5080379;28;20035;-34
2023/01/18 10:02:15;;;;;;;12.88;8.63;;;0.10;99.90;;;;;;5079635;28;20034;-34
2023/01/18 10:04:43;;;;;;;10.02;7.18;;;0.20;99.90;;;;;;5081760;28;20024;-35
2023/01/18 10:07:17;;;;;;;10.43;7.78;;;0.30;99.90;;;;;;5080084;28;20035;-35
2023/01/18 10:09:57;;;;;;;10.90;8.05;;;0.40;99.90;;;;;;5080491;28;20043;-35
2023/01/18 10:12:46;;;;;;;11.35;8.13;;;0.40;99.90;;;;;;5080254;28;20745;-34
2023/01/18 10:15:19;;;;;;;10.60;7.93;;;0.40;99.90;;;;;;5080371;28;20032;-34
2023/01/18 10:17:46;;;;;;;9.50;7.28;;;0.40;99.90;;;;;;5080821;28;20016;-33
2023/01/18 10:20:16;;;;;;;9.52;7.72;;;0.50;99.90;;;;;;5080475;28;20028;-33
2023/01/18 10:22:54;;;;;;;10.23;7.38;;;0.50;99.90;;;;;;5080329;28;20035;-34
2023/01/18 10:25:36;;;;;;;10.98;7.93;;;0.60;99.90;;;;;;5080787;28;20042;-35
2023/01/18 10:28:23;;;;;;;12.75;8.07;;;0.70;99.90;;;;;;5079775;28;20393;-34
2023/01/18 10:31:27;;;;;;;11.80;7.15;;;0.80;99.90;;;;;;5081249;28;20020;-34
2023/01/18 10:33:55;;;;;;;;;;;0.90;99.90;;;;;;5080415;28;20056;-34
2023/01/18 10:36:32;;;;;;;10.57;7.93;;;1.00;99.90;;;;;;5080026;28;20008;-34
2023/01/18 10:39:03;;;;;;;11.55;8.20;;;1.10;99.90;;;;;;5081402;28;20059;-35
2023/01/18 10:41:36;;;;;;;12.18;7.45;;;1.20;99.90;;;;;;5085396;28;20372;-33
2023/01/18 10:44:02;;;;;;;9.05;7.30;;;1.40;99.90;;;;;;5083995;28;21949;-34
2023/01/18 10:46:28;;;;;;;11.82;7.80;;;1.40;99.90;;;;;;5084800;28;20143;-33
2023/01/18 10:48:56;;;;;;;10.65;7.55;;;1.60;99.90;;;;;;5085611;28;20024;-34
2023/01/18 10:51:29;;;;;;;10.65;7.60;;;1.70;99.90;;;;;;5084253;28;20111;-34
2023/01/18 10:53:56;;;;;;;10.38;7.55;;;1.80;99.90;;;;;;5083573;28;20722;-35
2023/01/18 10:56:23;;;;;;;12.30;8.10;;;1.80;99.90;;;;;;5084179;28;20115;-33
2023/01/18 10:58:54;;;;;;;9.07;7.32;;;1.90;99.90;;;;;;5083867;28;20672;-34
2023/01/18 11:01:26;;;;;;;7.53;6.20;;;1.90;99.90;;;;;;5083586;28;20032;-34
2023/01/18 11:04:06;;;;;;;9.18;6.82;;;1.90;99.90;;;;;;5084158;28;20475;-33
2023/01/18 11:06:50;;;;;;;7.70;6.55;;;2.00;99.90;;;;;;5083482;28;20063;-34
2023/01/18 11:09:50;;;;;;;9.98;6.63;;;1.90;99.90;;;;;;5082972;28;20812;-35
2023/01/18 11:12:37;;;;;;;8.80;6.63;;;2.00;99.90;;;;;;5082853;28;20024;-34
2023/01/18 11:15:14;;;;;;;10.13;6.53;;;2.00;99.90;;;;;;5083285;28;20063;-34
2023/01/18 11:17:49;;;;;;;7.18;6.30;;;2.00;99.90;;;;;;5063817;28;20029;-35
2023/01/18 11:20:18;;;;;;;8.23;6.03;;;2.00;99.90;;;;;;5078362;28;20036;-34
2023/01/18 11:22:59;;;;;;;7.43;5.55;;;2.10;99.90;;;;;;5062825;28;20407;-34
2023/01/18 11:25:40;;;;;;;10.00;6.15;;;2.20;99.90;;;;;;5079339;28;20043;-35
2023/01/18 11:28:17;;;;;;;7.97;6.10;;;2.20;99.90;;;;;;5062814;28;20029;-35
2023/01/18 11:30:53;;;;;;;9.07;6.57;;;2.20;99.90;;;;;;5080570;28;20023;-34
2023/01/18 11:33:20;;;;;;;9.32;5.60;;;2.30;99.90;;;;;;5082611;28;20024;-36
2023/01/18 11:35:52;;;;;;;8.13;5.85;;;2.30;99.90;;;;;;5082681;28;20056;-34
2023/01/18 11:38:18;;;;;;;9.60;6.40;;;2.40;99.90;;;;;;5062344;28;20488;-33
2023/01/18 11:40:47;;;;;;;8.35;6.32;;;2.40;99.90;;;;;;5076482;28;20031;-35
2023/01/18 11:43:25;;;;;;;8.70;6.07;;;2.40;99.90;;;;;;5082142;28;20027;-35
2023/01/18 11:46:03;;;;;;;9.32;6.72;;;2.50;99.90;;;;;;5082561;28;20043;-35
2023/01/18 11:48:47;;;;;;;10.23;6.18;;;2.50;99.90;;;;;;5081825;28;20055;-35
2023/01/18 11:51:30;;;;;;;6.60;5.80;;;2.50;99.90;;;;;;5081870;28;20027;-34
2023/01/18 11:54:03;;;;;;;9.95;6.00;;;2.60;99.90;;;;;;5061785;28;20041;-34
2023/01/18 11:56:49;;;;;;;7.97;6.28;;;2.70;99.90;;;;;;5078751;28;20534;-34
2023/01/18 11:59:23;;;;;;;8.77;6.20;;;2.70;99.90;;;;;;5081906;28;20340;-34
2023/01/18 12:02:27;;;;;;;9.32;6.82;;;2.80;99.90;;;;;;5081858;28;20032;-35
2023/01/18 12:05:24;;;;;;;9.98;6.18;;;2.80;99.90;;;;;;5082558;28;20044;-33
2023/01/18 12:08:23;;;;;;;8.32;5.78;;;2.80;99.90;;;;;;5082267;28;20629;-34
2023/01/18 12:11:07;;;;;;;8.18;6.43;;;2.80;99.90;;;;;;5082793;28;20070;-34
2023/01/18 12:13:47;;;;;;;8.30;6.18;;;2.90;99.90;;;;;;5082421;28;20078;-34
2023/01/18 12:16:21;;;;;;;8.35;6.57;;;2.90;99.90;;;;;;5081469;28;20074;-34
2023/01/18 12:18:54;;;;;;;8.50;5.65;;;3.00;99.90;;;;;;5082244;28;20384;-34
2023/01/18 12:21:26;;;;;;;8.10;6.38;;;3.00;99.90;;;;;;5081234;28;20032;-33
2023/01/18 12:24:16;;;;;;;8.75;6.60;;;3.00;99.90;;;;;;5081632;28;20027;-34
2023/01/18 12:26:56;;;;;;;8.85;5.82;;;3.10;99.90;;;;;;5082663;28;20036;-33
2023/01/18 12:29:43;;;;;;;8.10;6.53;;;3.10;99.90;;;;;;5082015;28;20047;-33
2023/01/18 12:32:21;;;;;;;10.43;5.93;;;3.20;99.90;;;;;;5082067;28;20674;-34
2023/01/18 12:35:17;;;;;;;6.78;5.63;;;3.20;99.90;;;;;;5081832;28;20048;-34
2023/01/18 12:37:51;;;;;;;7.50;5.57;;;3.20;99.90;;;;;;5081005;28;20066;-33
2023/01/18 12:40:42;;;;;;;8.40;5.85;;;3.30;99.90;;;;;;5081417;28;20020;-33
2023/01/18 12:43:43;;;;;;;7.60;5.60;;;3.30;99.90;;;;;;5076313;28;20036;-33
2023/01/18 12:46:35;;;;;;;8.82;6.93;;;3.30;99.90;;;;;;5081765;28;20554;-34
2023/01/18 12:49:16;;;;;;;10.55;6.80;;;3.40;99.90;;;;;;5078541;28;20081;-34
2023/01/18 12:51:43;;;;;;;9.75;7.40;;;3.40;99.90;;;;;;5080871;28;20749;-33
2023/01/18 12:54:28;;;;;;;13.88;7.43;;;3.50;99.90;;;;;;5081295;28;20020;-33
2023/01/18 12:56:56;;;;;;;9.02;6.78;;;3.50;99.90;;;;;;5082084;28;20024;-33
2023/01/18 12:59:29;;;;;;;8.57;6.38;;;3.50;99.90;;;;;;5081094;28;20020;-33
2023/01/18 13:02:21;;;;;;;11.35;7.57;;;3.60;99.90;;;;;;5081477;28;20027;-32
2023/01/18 13:05:09;;;;;;;8.32;6.43;;;3.50;99.90;;;;;;5080556;28;20116;-34
2023/01/18 13:07:40;;;;;;;10.23;6.70;;;3.60;99.90;;;;;;5040297;28;20818;-34
2023/01/18 13:10:16;;;;;;;9.57;7.25;;;3.60;99.90;;;;;;5080329;28;20542;-34
2023/01/18 13:12:42;;;;;;;10.02;6.35;;;3.60;99.90;;;;;;5080526;28;20020;-34
2023/01/18 13:15:25;;;;;;;8.48;6.70;;;3.70;99.90;;;;;;5080479;28;20370;-33
2023/01/18 13:17:56;;;;;;;9.40;6.18;;;3.70;99.90;;;;;;5081317;28;20051;-33
2023/01/18 13:20:33;;;;;;;9.05;6.50;;;3.70;99.90;;;;;;5070354;28;20530;-34
2023/01/18 13:23:14;;;;;;;9.10;7.20;;;3.70;99.90;;;;;;5081576;28;20024;-33
2023/01/18 13:25:47;;;;;;;6.90;5.40;;;3.80;99.90;;;;;;5070947;28;20036;-33
2023/01/18 13:28:18;;;;;;;10.98;6.65;;;3.80;99.90;;;;;;5080379;28;20020;-33
2023/01/18 13:31:07;;;;;;;9.00;7.07;;;3.80;99.90;;;;;;5070553;28;20032;-33
2023/01/18 13:33:36;;;;;;;10.10;6.35;;;3.80;99.90;;;;;;5079870;28;20402;-33
2023/01/18 13:36:13;;;;;;;7.30;6.13;;;3.80;99.90;;;;;;5080184;28;20036;-33
2023/01/18 13:39:07;;;;;;;8.10;6.15;;;3.80;99.90;;;;;;5080338;28;20027;-34
2023/01/18 13:41:33;;;;;;;10.15;6.53;;;3.90;99.90;;;;;;5080710;28;20036;-33
2023/01/18 13:44:24;;;;;;;8.85;6.65;;;3.90;99.90;;;;;;5080844;28;20024;-33